This is the latest recevied weather packets stored in our database for station/object LU5DTF-1. If no packets are shown the sender has not sent any weather packets the latest 1 day(s).
| Time | Temp. | Humidity | Pressure | Rain* | Wind** | Luminosity | Snow |
|---|---|---|---|---|---|---|---|
| 1778115001 | 15° C | 95% | 999.7 hPa | 4.83 mm | - | - | - |
| 1778112601 | 15.56° C | 95% | 1002.4 hPa | 7.11 mm | - | - | - |
| 1778107801 | 15° C | 94% | 1003.5 hPa | 17.78 mm | - | - | - |
| 1778102101 | 14.44° C | 94% | 1005.1 hPa | 7.87 mm | - | - | - |
| 1778101801 | 14.44° C | 94% | 1005 hPa | 7.37 mm | - | - | - |
| 1778088900 | 16.11° C | 83% | 1009.9 hPa | 1.52 mm | - | - | - |
| 1778088301 | 15.56° C | 85% | 1010.2 hPa | 1.52 mm | - | - | - |
| 1778082900 | 16.67° C | 80% | 1010 hPa | 0 mm | - | - | - |
| 1778079302 | 16.67° C | 85% | 1012 hPa | 0 mm | - | - | - |
| 1778078102 | 16.11° C | 86% | 1013.1 hPa | 0 mm | - | - | - |
| 1778077502 | 16.11° C | 87% | 1013.5 hPa | 0 mm | - | - | - |
| 1778077202 | 16.11° C | 87% | 1013.5 hPa | 0 mm | - | - | - |
| 1778076602 | 16.11° C | 87% | 1013.6 hPa | 0 mm | - | - | - |
| 1778076002 | 16.11° C | 88% | 1013.5 hPa | 0 mm | - | - | - |
| 1778075102 | 16.11° C | 89% | 1013.6 hPa | 0 mm | - | - | - |
| 1778073602 | 16.11° C | 90% | 1014 hPa | 0 mm | - | - | - |
| 1778058002 | 16.11° C | 87% | 1014.9 hPa | 0 mm | - | - | - |
| 1778056501 | 16.11° C | 88% | 1015.1 hPa | 0 mm | - | - | - |
| 1778056201 | 16.11° C | 88% | 1015.1 hPa | 0 mm | - | - | - |
| 1778054701 | 16.11° C | 87% | 1015.2 hPa | 0 mm | - | - | - |
| 1778051701 | 16.11° C | 87% | 1015.1 hPa | 0 mm | - | - | - |
| 1778051401 | 16.11° C | 87% | 1015.1 hPa | 0 mm | - | - | - |
| 1778050501 | 16.11° C | 87% | 1015.1 hPa | 0 mm | - | - | - |
| 1778050201 | 16.11° C | 87% | 1015.2 hPa | 0 mm | - | - | - |
| 1778047501 | 16.11° C | 84% | 1015.6 hPa | 0 mm | - | - | - |
* Rain latest hour (hover to see other rain measurements)
** Current wind speed in m/s (hover to see current wind gust speed)